Terminal Aerodrome Forecast
Issued by NWS North Platte, NE

Home | Current Version | Previous Version | Graphics & Text | Print | Product List | Glossary On
Versions: 1 2 3 4 5 6 7 8 9 10 11 12 13 14
083
FTUS43 KLBF 042323
TAFVTN
TAF
KVTN 042323Z 0500/0524 29006KT P6SM BKN200
     FM050600 24006KT P6SM SCT050 BKN090
     FM051500 30013G18KT P6SM BKN035
     FM052200 31010KT P6SM SCT250=

USA.gov is the U.S. government's official web portal to all federal, state and local government web resources and services.